Time,TemperatureF,DewpointF,PressureIn,WindDirection,WindDirectionDegrees,WindSpeedMPH,WindSpeedGustMPH,Humidity,HourlyPrecipIn,Conditions,Clouds,dailyrainin,SoftwareType,DateUTC
2013-09-30 00:12:00,56.0,-99.9,29.99,South,180,3.0,7.0,-999,-99.99,,,-99.99,,2013-09-30 05:12:00,
2013-09-30 00:23:00,56.0,-99.9,29.99,South,180,3.0,7.0,-999,-99.99,,,-99.99,,2013-09-30 05:23:00,
2013-09-30 00:34:00,56.0,-99.9,29.99,South,180,3.0,7.0,-999,-99.99,,,-99.99,,2013-09-30 05:34:00,
2013-09-30 00:40:00,55.0,-99.9,29.98,South,180,3.0,9.0,-999,-99.99,,,-99.99,,2013-09-30 05:40:00,
2013-09-30 01:12:00,55.0,-99.9,29.98,South,180,3.0,9.0,-999,-99.99,,,-99.99,,2013-09-30 06:12:00,
2013-09-30 01:22:00,55.0,-99.9,29.98,South,180,3.0,9.0,-999,-99.99,,,-99.99,,2013-09-30 06:22:00,
2013-09-30 01:32:00,55.0,-99.9,29.98,South,180,3.0,9.0,-999,-99.99,,,-99.99,,2013-09-30 06:32:00,
2013-09-30 01:40:00,55.0,-99.9,29.98,South,180,2.0,8.0,-999,-99.99,,,-99.99,,2013-09-30 06:40:00,
2013-09-30 02:12:00,55.0,-99.9,29.98,South,180,2.0,8.0,-999,-99.99,,,-99.99,,2013-09-30 07:12:00,
2013-09-30 02:22:00,55.0,-99.9,29.98,South,180,2.0,8.0,-999,-99.99,,,-99.99,,2013-09-30 07:22:00,
2013-09-30 02:32:00,55.0,-99.9,29.98,South,180,2.0,8.0,-999,-99.99,,,-99.99,,2013-09-30 07:32:00,
2013-09-30 02:40:00,56.0,-99.9,29.97,SSE,160,5.0,7.0,-999,-99.99,,,-99.99,,2013-09-30 07:40:00,
2013-09-30 03:12:00,56.0,-99.9,29.97,SSE,160,5.0,7.0,-999,-99.99,,,-99.99,,2013-09-30 08:12:00,
2013-09-30 03:22:00,56.0,-99.9,29.97,SSE,160,5.0,7.0,-999,-99.99,,,-99.99,,2013-09-30 08:22:00,
2013-09-30 03:32:00,56.0,-99.9,29.97,SSE,160,5.0,7.0,-999,-99.99,,,-99.99,,2013-09-30 08:32:00,
2013-09-30 03:40:00,56.0,-99.9,29.97,South,190,6.0,10.0,-999,-99.99,,,-99.99,,2013-09-30 08:40:00,
2013-09-30 04:12:00,56.0,-99.9,29.97,South,190,6.0,10.0,-999,-99.99,,,-99.99,,2013-09-30 09:12:00,
2013-09-30 04:22:00,56.0,-99.9,29.97,South,190,6.0,10.0,-999,-99.99,,,-99.99,,2013-09-30 09:22:00,
2013-09-30 04:33:00,56.0,-99.9,29.97,South,190,6.0,10.0,-999,-99.99,,,-99.99,,2013-09-30 09:33:00,
2013-09-30 04:40:00,55.0,-99.9,29.97,South,170,3.0,6.0,-999,-99.99,,,-99.99,,2013-09-30 09:40:00,
2013-09-30 05:13:00,55.0,-99.9,29.97,South,170,3.0,6.0,-999,-99.99,,,-99.99,,2013-09-30 10:13:00,
2013-09-30 05:23:00,55.0,-99.9,29.97,South,170,3.0,6.0,-999,-99.99,,,-99.99,,2013-09-30 10:23:00,
2013-09-30 05:32:00,55.0,-99.9,29.97,South,170,3.0,6.0,-999,-99.99,,,-99.99,,2013-09-30 10:32:00,
2013-09-30 05:40:00,53.0,-99.9,29.97,South,170,3.0,6.0,-999,-99.99,,,-99.99,,2013-09-30 10:40:00,
2013-09-30 06:12:00,53.0,-99.9,29.97,South,170,3.0,6.0,-999,-99.99,,,-99.99,,2013-09-30 11:12:00,
2013-09-30 06:22:00,53.0,-99.9,29.97,South,170,3.0,6.0,-999,-99.99,,,-99.99,,2013-09-30 11:22:00,
2013-09-30 06:33:00,53.0,-99.9,29.97,South,170,3.0,6.0,-999,-99.99,,,-99.99,,2013-09-30 11:33:00,
2013-09-30 06:40:00,54.0,-99.9,29.96,SSE,150,5.0,8.0,-999,-99.99,,,-99.99,,2013-09-30 11:40:00,
2013-09-30 07:12:00,54.0,-99.9,29.96,SSE,150,5.0,8.0,-999,-99.99,,,-99.99,,2013-09-30 12:12:00,
2013-09-30 07:22:00,54.0,-99.9,29.96,SSE,150,5.0,8.0,-999,-99.99,,,-99.99,,2013-09-30 12:22:00,
2013-09-30 07:32:00,54.0,-99.9,29.96,SSE,150,5.0,8.0,-999,-99.99,,,-99.99,,2013-09-30 12:32:00,
2013-09-30 07:40:00,57.0,-99.9,29.94,SSE,160,8.0,11.0,-999,-99.99,,,-99.99,,2013-09-30 12:40:00,
2013-09-30 08:12:00,57.0,-99.9,29.94,SSE,160,8.0,11.0,-999,-99.99,,,-99.99,,2013-09-30 13:12:00,
2013-09-30 08:22:00,57.0,-99.9,29.94,SSE,160,8.0,11.0,-999,-99.99,,,-99.99,,2013-09-30 13:22:00,
2013-09-30 08:32:00,57.0,-99.9,29.94,SSE,160,8.0,11.0,-999,-99.99,,,-99.99,,2013-09-30 13:32:00,
2013-09-30 08:40:00,61.0,-99.9,29.93,SSE,160,9.0,14.0,-999,-99.99,,,-99.99,,2013-09-30 13:40:00,
2013-09-30 09:11:00,61.0,-99.9,29.93,SSE,160,9.0,14.0,-999,-99.99,,,-99.99,,2013-09-30 14:11:00,
2013-09-30 09:22:00,61.0,-99.9,29.93,SSE,160,9.0,14.0,-999,-99.99,,,-99.99,,2013-09-30 14:22:00,
2013-09-30 09:32:00,61.0,-99.9,29.93,SSE,160,9.0,14.0,-999,-99.99,,,-99.99,,2013-09-30 14:32:00,
2013-09-30 09:40:00,61.0,-99.9,29.94,SSE,160,10.0,17.0,-999,-99.99,,,-99.99,,2013-09-30 14:40:00,
2013-09-30 10:12:00,61.0,-99.9,29.94,SSE,160,10.0,17.0,-999,-99.99,,,-99.99,,2013-09-30 15:12:00,
2013-09-30 10:23:00,61.0,-99.9,29.94,SSE,160,10.0,17.0,-999,-99.99,,,-99.99,,2013-09-30 15:23:00,
2013-09-30 10:34:00,61.0,-99.9,29.94,SSE,160,10.0,17.0,-999,-99.99,,,-99.99,,2013-09-30 15:34:00,
2013-09-30 10:40:00,63.0,-99.9,29.92,SSE,150,13.0,21.0,-999,-99.99,,,-99.99,,2013-09-30 15:40:00,
2013-09-30 11:14:00,63.0,-99.9,29.92,SSE,150,13.0,21.0,-999,-99.99,,,-99.99,,2013-09-30 16:14:00,
2013-09-30 11:24:00,63.0,-99.9,29.92,SSE,150,13.0,21.0,-999,-99.99,,,-99.99,,2013-09-30 16:24:00,
2013-09-30 11:34:00,63.0,-99.9,29.92,SSE,150,13.0,21.0,-999,-99.99,,,-99.99,,2013-09-30 16:34:00,
2013-09-30 11:40:00,63.0,-99.9,29.92,SSE,160,9.0,21.0,-999,-99.99,,,-99.99,,2013-09-30 16:40:00,
2013-09-30 12:13:00,63.0,-99.9,29.92,SSE,160,9.0,21.0,-999,-99.99,,,-99.99,,2013-09-30 17:13:00,
2013-09-30 12:23:00,63.0,-99.9,29.92,SSE,160,9.0,21.0,-999,-99.99,,,-99.99,,2013-09-30 17:23:00,
2013-09-30 12:34:00,63.0,-99.9,29.92,SSE,160,9.0,21.0,-999,-99.99,,,-99.99,,2013-09-30 17:34:00,
2013-09-30 12:40:00,64.0,-99.9,29.90,SSE,150,9.0,18.0,-999,-99.99,,,-99.99,,2013-09-30 17:40:00,
2013-09-30 13:12:00,64.0,-99.9,29.90,SSE,150,9.0,18.0,-999,-99.99,,,-99.99,,2013-09-30 18:12:00,
2013-09-30 13:22:00,64.0,-99.9,29.90,SSE,150,9.0,18.0,-999,-99.99,,,-99.99,,2013-09-30 18:22:00,
2013-09-30 13:32:00,64.0,-99.9,29.90,SSE,150,9.0,18.0,-999,-99.99,,,-99.99,,2013-09-30 18:32:00,
2013-09-30 13:40:00,64.0,-99.9,29.88,South,170,11.0,23.0,-999,-99.99,,,-99.99,,2013-09-30 18:40:00,
2013-09-30 14:12:00,64.0,-99.9,29.88,South,170,11.0,23.0,-999,-99.99,,,-99.99,,2013-09-30 19:12:00,
2013-09-30 14:22:00,64.0,-99.9,29.88,South,170,11.0,23.0,-999,-99.99,,,-99.99,,2013-09-30 19:22:00,
2013-09-30 14:32:00,64.0,-99.9,29.88,South,170,11.0,23.0,-999,-99.99,,,-99.99,,2013-09-30 19:32:00,
2013-09-30 14:40:00,63.0,-99.9,29.86,SSE,150,14.0,25.0,-999,-99.99,,,-99.99,,2013-09-30 19:40:00,
2013-09-30 15:13:00,63.0,-99.9,29.86,SSE,150,14.0,25.0,-999,-99.99,,,-99.99,,2013-09-30 20:13:00,
2013-09-30 15:23:00,63.0,-99.9,29.86,SSE,150,14.0,25.0,-999,-99.99,,,-99.99,,2013-09-30 20:23:00,
2013-09-30 15:34:00,63.0,-99.9,29.86,SSE,150,14.0,25.0,-999,-99.99,,,-99.99,,2013-09-30 20:34:00,
2013-09-30 15:40:00,63.0,-99.9,29.84,SSE,160,13.0,21.0,-999,-99.99,,,-99.99,,2013-09-30 20:40:00,
2013-09-30 16:11:00,63.0,-99.9,29.84,SSE,160,13.0,21.0,-999,-99.99,,,-99.99,,2013-09-30 21:11:00,
2013-09-30 16:23:00,63.0,-99.9,29.84,SSE,160,13.0,21.0,-999,-99.99,,,-99.99,,2013-09-30 21:23:00,
2013-09-30 16:34:00,63.0,-99.9,29.84,SSE,160,13.0,21.0,-999,-99.99,,,-99.99,,2013-09-30 21:34:00,
2013-09-30 16:40:00,62.0,-99.9,29.83,South,170,11.0,22.0,-999,-99.99,,,-99.99,,2013-09-30 21:40:00,
2013-09-30 17:13:00,62.0,-99.9,29.83,South,170,11.0,22.0,-999,-99.99,,,-99.99,,2013-09-30 22:13:00,
2013-09-30 17:24:00,62.0,-99.9,29.83,South,170,11.0,22.0,-999,-99.99,,,-99.99,,2013-09-30 22:24:00,
2013-09-30 17:34:00,62.0,-99.9,29.83,South,170,11.0,22.0,-999,-99.99,,,-99.99,,2013-09-30 22:34:00,
2013-09-30 17:40:00,62.0,-99.9,29.82,SSE,150,11.0,18.0,-999,-99.99,,,-99.99,,2013-09-30 22:40:00,
2013-09-30 18:12:00,62.0,-99.9,29.82,SSE,150,11.0,18.0,-999,-99.99,,,-99.99,,2013-09-30 23:12:00,
2013-09-30 18:23:00,62.0,-99.9,29.82,SSE,150,11.0,18.0,-999,-99.99,,,-99.99,,2013-09-30 23:23:00,
2013-09-30 18:34:00,62.0,-99.9,29.82,SSE,150,11.0,18.0,-999,-99.99,,,-99.99,,2013-09-30 23:34:00,
2013-09-30 18:40:00,61.0,-99.9,29.80,SSE,150,13.0,21.0,-999,-99.99,,,-99.99,,2013-09-30 23:40:00,
2013-09-30 19:12:00,61.0,-99.9,29.80,SSE,150,13.0,21.0,-999,-99.99,,,-99.99,,2013-10-01 00:12:00,
2013-09-30 19:23:00,61.0,-99.9,29.80,SSE,150,13.0,21.0,-999,-99.99,,,-99.99,,2013-10-01 00:23:00,
2013-09-30 19:32:00,61.0,-99.9,29.80,SSE,150,13.0,21.0,-999,-99.99,,,-99.99,,2013-10-01 00:32:00,
2013-09-30 19:40:00,61.0,-99.9,29.81,SSE,160,10.0,20.0,-999,-99.99,,,-99.99,,2013-10-01 00:40:00,
2013-09-30 20:12:00,61.0,-99.9,29.81,SSE,160,10.0,20.0,-999,-99.99,,,-99.99,,2013-10-01 01:12:00,
2013-09-30 20:22:00,61.0,-99.9,29.81,SSE,160,10.0,20.0,-999,-99.99,,,-99.99,,2013-10-01 01:22:00,
2013-09-30 20:33:00,61.0,-99.9,29.81,SSE,160,10.0,20.0,-999,-99.99,,,-99.99,,2013-10-01 01:33:00,
2013-09-30 20:40:00,60.0,-99.9,29.82,SSE,160,9.0,17.0,-999,-99.99,,,-99.99,,2013-10-01 01:40:00,
2013-09-30 21:12:00,60.0,-99.9,29.82,SSE,160,9.0,17.0,-999,-99.99,,,-99.99,,2013-10-01 02:12:00,
2013-09-30 21:23:00,60.0,-99.9,29.82,SSE,160,9.0,17.0,-999,-99.99,,,-99.99,,2013-10-01 02:23:00,
2013-09-30 21:33:00,60.0,-99.9,29.82,SSE,160,9.0,17.0,-999,-99.99,,,-99.99,,2013-10-01 02:33:00,
2013-09-30 21:40:00,61.0,-99.9,29.82,SSE,150,8.0,15.0,-999,-99.99,,,-99.99,,2013-10-01 02:40:00,
2013-09-30 22:12:00,61.0,-99.9,29.82,SSE,150,8.0,15.0,-999,-99.99,,,-99.99,,2013-10-01 03:12:00,
2013-09-30 22:22:00,61.0,-99.9,29.82,SSE,150,8.0,15.0,-999,-99.99,,,-99.99,,2013-10-01 03:22:00,
2013-09-30 22:34:00,61.0,-99.9,29.82,SSE,150,8.0,15.0,-999,-99.99,,,-99.99,,2013-10-01 03:34:00,
2013-09-30 23:14:00,60.0,-99.9,29.82,SSE,150,9.0,17.0,-999,-99.99,,,-99.99,,2013-10-01 04:14:00,
2013-09-30 23:24:00,60.0,-99.9,29.82,SSE,150,9.0,17.0,-999,-99.99,,,-99.99,,2013-10-01 04:24:00,